Time;durP1;ratioP1;P1;durP2;ratioP2;P2;SDS_P1;SDS_P2;PMS_P1;PMS_P2;Temp;Humidity;BMP_temperature;BMP_pressure;BME280_temperature;BME280_humidity;BME280_pressure;Samples;Min_cycle;Max_cycle;Signal;HPM_P1;HPM_P2
2022/12/05 00:03:26;;;;;;;1999.90;999.90;;;2.40;99.90;;;;;;6695582;88;20212;-73
2022/12/05 00:13:27;;;;;;;1999.90;999.90;;;2.50;99.90;;;;;;6694596;88;20370;-73
2022/12/05 00:23:28;;;;;;;1999.90;999.90;;;2.40;99.90;;;;;;6695654;88;20730;-74
2022/12/05 00:33:29;;;;;;;1999.90;999.90;;;2.20;99.90;;;;;;6693803;88;20264;-74
2022/12/05 00:43:29;;;;;;;1999.90;999.90;;;2.00;99.90;;;;;;6695896;88;20325;-74
2022/12/05 00:53:31;;;;;;;1999.90;999.90;;;1.80;99.90;;;;;;6694334;88;20178;-74
2022/12/05 01:03:31;;;;;;;1999.90;999.90;;;1.90;99.90;;;;;;6693187;88;20207;-74
2022/12/05 01:13:32;;;;;;;1999.90;999.90;;;1.70;99.90;;;;;;6694152;88;20248;-75
2022/12/05 01:23:33;;;;;;;1999.90;999.90;;;1.70;99.90;;;;;;6692532;88;20536;-74
2022/12/05 01:33:34;;;;;;;1999.90;999.90;;;1.60;99.90;;;;;;6694233;88;20265;-74
2022/12/05 01:43:52;;;;;;;1999.90;999.90;;;1.70;99.90;;;;;;6705514;88;20284;-74
2022/12/05 01:53:52;;;;;;;1999.90;999.90;;;1.60;99.90;;;;;;6693489;88;20209;-74
2022/12/05 02:03:56;;;;;;;1999.90;999.90;;;1.40;99.90;;;;;;6697051;88;20199;-74
2022/12/05 02:14:17;;;;;;;1999.90;999.90;;;1.40;99.90;;;;;;6696849;88;20213;-75
2022/12/05 02:24:53;;;;;;;1999.90;999.90;;;1.30;99.90;;;;;;6692866;88;20225;-74
2022/12/05 02:35:04;;;;;;;1999.90;999.90;;;1.30;99.90;;;;;;6695044;88;20201;-74
2022/12/05 02:45:09;;;;;;;1999.90;999.90;;;1.30;99.90;;;;;;6694809;88;21984;-75
2022/12/05 02:55:11;;;;;;;1999.90;999.90;;;1.00;99.90;;;;;;6695211;88;20233;-74
2022/12/05 03:05:39;;;;;;;1999.90;999.90;;;1.00;99.90;;;;;;6693841;88;20223;-74
2022/12/05 03:15:59;;;;;;;;;;;1.20;99.90;;;;;;6703927;77;20191;-77
2022/12/05 03:26:23;;;;;;;1999.90;999.90;;;0.90;99.90;;;;;;6706079;88;20485;-78
2022/12/05 03:36:31;;;;;;;1999.90;999.90;;;0.90;99.90;;;;;;6706602;88;20195;-78
2022/12/05 03:46:39;;;;;;;1999.90;999.90;;;1.00;99.90;;;;;;6706804;88;20178;-78
2022/12/05 03:56:48;;;;;;;1999.90;999.90;;;1.10;99.90;;;;;;6702958;88;20232;-78
2022/12/05 04:06:52;;;;;;;1999.90;999.90;;;0.90;99.90;;;;;;6702238;88;20276;-79
2022/12/05 04:17:04;;;;;;;1999.90;999.90;;;0.90;99.90;;;;;;6700639;88;20197;-79
2022/12/05 04:27:20;;;;;;;1999.90;999.90;;;0.90;99.90;;;;;;6688621;88;20278;-79
2022/12/05 04:37:25;;;;;;;1999.90;999.90;;;1.00;99.90;;;;;;6693351;88;20648;-80
2022/12/05 04:47:30;;;;;;;1999.90;999.90;;;1.00;99.90;;;;;;6694567;88;20194;-80
2022/12/05 04:57:39;;;;;;;1999.90;999.90;;;1.00;99.90;;;;;;6695896;88;20182;-81
2022/12/05 05:07:48;;;;;;;1999.90;999.90;;;0.90;99.90;;;;;;6708401;88;20182;-81
2022/12/05 05:17:48;;;;;;;1999.90;999.90;;;0.80;99.90;;;;;;6709257;88;20250;-81
2022/12/05 05:27:50;;;;;;;1999.90;999.90;;;0.90;99.90;;;;;;6704112;89;20214;-81
2022/12/05 05:37:50;;;;;;;1999.90;999.90;;;0.90;99.90;;;;;;6699941;88;20198;-80
2022/12/05 05:47:51;;;;;;;1999.90;999.90;;;1.00;99.90;;;;;;6701179;88;20203;-81
2022/12/05 05:57:51;;;;;;;1999.90;999.90;;;1.00;99.90;;;;;;6702068;88;20294;-81
2022/12/05 06:07:52;;;;;;;1999.90;999.90;;;1.10;99.90;;;;;;6696580;88;20576;-80
2022/12/05 06:17:53;;;;;;;1999.90;999.90;;;1.10;99.90;;;;;;6699261;88;20197;-80
2022/12/05 06:27:53;;;;;;;1999.90;999.90;;;1.00;99.90;;;;;;6693931;88;20210;-80
2022/12/05 06:37:54;;;;;;;1999.90;999.90;;;1.10;99.90;;;;;;6695265;88;21067;-79
2022/12/05 06:47:54;;;;;;;1999.90;999.90;;;1.20;99.90;;;;;;6699296;88;20257;-80
2022/12/05 06:57:55;;;;;;;1999.90;999.90;;;1.10;99.90;;;;;;6668912;89;20617;-79
2022/12/05 07:07:56;;;;;;;1999.90;999.90;;;1.00;99.90;;;;;;6670053;89;20213;-81
2022/12/05 07:17:57;;;;;;;1999.90;999.90;;;1.10;99.90;;;;;;6675387;89;20176;-84
2022/12/05 07:27:57;;;;;;;1999.90;999.90;;;1.20;99.90;;;;;;6707559;88;20186;-81
2022/12/05 07:48:01;;;;;;;1999.90;999.90;;;1.40;99.90;;;;;;6748427;88;20547;-78
2022/12/05 07:58:22;;;;;;;1999.90;999.90;;;1.50;99.90;;;;;;6755375;77;20287;-78
2022/12/05 08:08:23;;;;;;;1999.90;999.90;;;1.40;99.90;;;;;;6745999;88;20528;-80
2022/12/05 08:18:23;;;;;;;1999.90;999.90;;;1.30;99.90;;;;;;6743020;88;20788;-79
2022/12/05 08:28:24;;;;;;;1999.90;999.90;;;1.50;99.90;;;;;;6739921;88;20223;-79
2022/12/05 08:38:24;;;;;;;1999.90;999.90;;;1.60;99.90;;;;;;6739009;88;20238;-81
2022/12/05 08:48:27;;;;;;;1999.90;999.90;;;1.60;99.90;;;;;;6739815;88;20306;-79
2022/12/05 08:58:28;;;;;;;1999.90;999.90;;;1.70;99.90;;;;;;6743855;88;20192;-79
2022/12/05 09:08:29;;;;;;;1999.90;999.90;;;1.80;99.90;;;;;;6742901;88;20294;-79
2022/12/05 09:18:29;;;;;;;1999.90;999.90;;;1.90;99.90;;;;;;6738565;77;20332;-75
2022/12/05 09:28:31;;;;;;;1999.90;999.90;;;1.90;99.90;;;;;;6721160;88;20655;-74
2022/12/05 09:38:32;;;;;;;1999.90;999.90;;;2.00;99.90;;;;;;6720948;88;20203;-74
2022/12/05 09:48:33;;;;;;;1999.90;999.90;;;1.90;99.90;;;;;;6730591;88;20697;-75
2022/12/05 09:58:47;;;;;;;1999.90;999.90;;;2.20;99.90;;;;;;6723734;88;20324;-75
2022/12/05 10:09:07;;;;;;;1999.90;999.90;;;2.10;99.90;;;;;;6720498;88;20564;-75
2022/12/05 10:19:21;;;;;;;1999.90;999.90;;;2.20;99.90;;;;;;6728204;88;20181;-75
2022/12/05 10:29:32;;;;;;;1999.90;999.90;;;2.20;99.90;;;;;;6727496;88;20208;-75
2022/12/05 10:39:33;;;;;;;1999.90;999.90;;;2.20;99.90;;;;;;6717354;88;20178;-75
2022/12/05 10:49:34;;;;;;;1999.90;999.90;;;2.30;99.90;;;;;;6728122;88;20184;-75
2022/12/05 10:59:46;;;;;;;1999.90;999.90;;;2.40;99.90;;;;;;6723941;88;21022;-75
2022/12/05 11:09:47;;;;;;;1999.90;999.90;;;2.50;99.90;;;;;;6723914;88;20571;-75
2022/12/05 11:19:47;;;;;;;1999.90;999.90;;;2.60;99.90;;;;;;6725777;88;20271;-76
2022/12/05 11:30:09;;;;;;;1999.90;999.90;;;2.40;99.90;;;;;;6730915;88;20209;-74
2022/12/05 11:40:32;;;;;;;1999.90;999.90;;;2.50;99.90;;;;;;6729258;88;20706;-74
2022/12/05 11:50:51;;;;;;;1999.90;999.90;;;2.60;99.90;;;;;;6724395;88;20417;-75
2022/12/05 12:01:00;;;;;;;1999.90;999.90;;;2.50;99.90;;;;;;6718068;88;20216;-74
2022/12/05 12:11:01;;;;;;;1999.90;999.90;;;2.70;99.90;;;;;;6725041;88;20204;-75
2022/12/05 12:21:32;;;;;;;1999.90;999.90;;;2.90;99.90;;;;;;6720836;88;20712;-74
2022/12/05 12:31:53;;;;;;;1999.90;999.90;;;3.20;99.90;;;;;;6724512;88;20238;-75
2022/12/05 12:41:56;;;;;;;1999.90;999.90;;;3.50;99.90;;;;;;6725029;88;20249;-75
2022/12/05 12:52:01;;;;;;;1999.90;999.90;;;3.40;99.90;;;;;;6721514;88;20181;-75
2022/12/05 13:02:24;;;;;;;1999.90;999.90;;;3.40;99.90;;;;;;6719959;88;20184;-74
2022/12/05 13:12:31;;;;;;;1999.90;999.90;;;3.30;99.90;;;;;;6724895;88;20209;-74
2022/12/05 13:22:32;;;;;;;1999.90;999.90;;;3.30;99.90;;;;;;6719047;88;20170;-73
2022/12/05 13:32:39;;;;;;;1999.90;999.90;;;3.30;99.90;;;;;;6718600;88;20219;-73
2022/12/05 13:42:41;;;;;;;1999.90;999.90;;;3.40;99.90;;;;;;6718099;88;20259;-74
2022/12/05 13:52:52;;;;;;;1999.90;999.90;;;3.40;99.90;;;;;;6715047;88;20256;-75
2022/12/05 14:03:04;;;;;;;1999.90;999.90;;;3.30;99.90;;;;;;6719825;88;20231;-76
2022/12/05 14:13:14;;;;;;;1999.90;999.90;;;3.20;99.90;;;;;;6715540;88;20214;-77
2022/12/05 14:23:41;;;;;;;1999.90;999.90;;;3.30;99.90;;;;;;6713862;88;20235;-77
2022/12/05 14:33:41;;;;;;;1999.90;999.90;;;3.30;99.90;;;;;;6730820;88;20686;-77
2022/12/05 14:43:43;;;;;;;1999.90;999.90;;;3.20;99.90;;;;;;6734418;88;20524;-75
2022/12/05 14:53:43;;;;;;;1999.90;999.90;;;3.20;99.90;;;;;;6732953;88;20287;-75
2022/12/05 15:03:58;;;;;;;1999.90;999.90;;;3.10;99.90;;;;;;6725475;88;20200;-76
2022/12/05 15:24:04;;;;;;;1999.90;999.90;;;2.90;99.90;;;;;;6734845;88;20728;-76
2022/12/05 15:34:28;;;;;;;1999.90;999.90;;;2.90;99.90;;;;;;6720681;88;20194;-78
2022/12/05 15:44:29;;;;;;;1999.90;999.90;;;2.80;99.90;;;;;;6722026;88;20630;-77
2022/12/05 15:54:34;;;;;;;1999.90;999.90;;;2.60;99.90;;;;;;6720788;88;20193;-77
2022/12/05 16:04:45;;;;;;;1999.90;999.90;;;2.70;99.90;;;;;;6720659;88;20664;-77
2022/12/05 16:14:50;;;;;;;1999.90;999.90;;;2.80;99.90;;;;;;6720733;88;20210;-78
2022/12/05 16:24:53;;;;;;;1999.90;999.90;;;2.70;99.90;;;;;;6721168;88;20221;-77
2022/12/05 16:34:54;;;;;;;1999.90;999.90;;;2.60;99.90;;;;;;6703655;88;20210;-76
2022/12/05 16:45:02;;;;;;;1999.90;999.90;;;2.60;99.90;;;;;;6703480;88;20244;-77
2022/12/05 16:55:03;;;;;;;1999.90;999.90;;;2.60;99.90;;;;;;6704918;88;20333;-78
2022/12/05 17:05:12;;;;;;;1999.90;999.90;;;2.50;99.90;;;;;;6711461;88;20198;-80
2022/12/05 17:15:17;;;;;;;1999.90;999.90;;;2.50;99.90;;;;;;6714006;88;20225;-79
2022/12/05 17:25:33;;;;;;;1999.90;999.90;;;2.30;99.90;;;;;;6711376;88;20218;-78
2022/12/05 17:35:35;;;;;;;1999.90;999.90;;;2.20;99.90;;;;;;6711181;88;20206;-78
2022/12/05 17:45:35;;;;;;;1999.90;999.90;;;2.10;99.90;;;;;;6734864;77;20246;-79
2022/12/05 17:55:36;;;;;;;1999.90;999.90;;;2.20;99.90;;;;;;6754761;88;20328;-77
2022/12/05 18:05:36;;;;;;;1999.90;999.90;;;2.00;99.90;;;;;;6734863;88;20232;-78
2022/12/05 18:15:38;;;;;;;1999.90;999.90;;;2.00;99.90;;;;;;6752861;87;20402;-81
2022/12/05 18:25:39;;;;;;;1999.90;999.90;;;2.00;99.90;;;;;;6772567;76;20191;-81
2022/12/05 18:35:40;;;;;;;1999.90;999.90;;;1.90;99.90;;;;;;6782589;87;20201;-79
2022/12/05 18:45:41;;;;;;;1999.90;999.90;;;2.00;99.90;;;;;;6759599;87;20187;-77
2022/12/05 18:55:41;;;;;;;1999.90;999.90;;;1.70;99.90;;;;;;6760523;87;20260;-77
2022/12/05 19:05:42;;;;;;;1999.90;999.90;;;1.80;99.90;;;;;;6759963;87;20217;-78
2022/12/05 19:15:42;;;;;;;1999.90;999.90;;;1.80;99.90;;;;;;6752532;87;20690;-80
2022/12/05 19:25:43;;;;;;;1999.90;999.90;;;1.80;99.90;;;;;;6755707;87;20252;-81
2022/12/05 19:35:43;;;;;;;1999.90;999.90;;;1.90;99.90;;;;;;6766978;88;20656;-79
2022/12/05 19:45:47;;;;;;;1999.90;999.90;;;1.80;99.90;;;;;;6764418;87;20202;-79
2022/12/05 19:55:48;;;;;;;1999.90;999.90;;;1.90;99.90;;;;;;6750640;88;20205;-79
2022/12/05 20:05:56;;;;;;;1999.90;999.90;;;1.80;99.90;;;;;;6747317;88;20290;-79
2022/12/05 20:16:01;;;;;;;1999.90;999.90;;;1.80;99.90;;;;;;6743906;88;20196;-80
2022/12/05 20:26:05;;;;;;;1999.90;999.90;;;1.70;99.90;;;;;;6745797;88;20180;-80
2022/12/05 20:36:11;;;;;;;1999.90;999.90;;;1.90;99.90;;;;;;6745266;88;20699;-79
2022/12/05 20:46:16;;;;;;;;;;;1.80;99.90;;;;;;6741320;88;20214;-77
2022/12/05 20:56:24;;;;;;;1999.90;999.90;;;1.80;99.90;;;;;;6740099;88;20069;-79
2022/12/05 21:06:29;;;;;;;1999.90;999.90;;;1.80;99.90;;;;;;6737115;88;20211;-77
2022/12/05 21:16:30;;;;;;;1999.90;999.90;;;1.90;99.90;;;;;;6743385;77;20232;-74
2022/12/05 21:26:32;;;;;;;1999.90;999.90;;;1.90;99.90;;;;;;6731029;88;20193;-75
2022/12/05 21:36:34;;;;;;;1999.90;999.90;;;2.00;99.90;;;;;;6723601;88;20514;-75
2022/12/05 21:46:35;;;;;;;1999.90;999.90;;;2.00;99.90;;;;;;6725901;88;20219;-75
2022/12/05 21:56:35;;;;;;;1999.90;999.90;;;2.10;99.90;;;;;;6727003;88;20287;-75
2022/12/05 22:06:36;;;;;;;1999.90;999.90;;;2.00;99.90;;;;;;6739541;88;20210;-75
2022/12/05 22:16:36;;;;;;;1999.90;999.90;;;2.10;99.90;;;;;;6737466;88;20747;-75
2022/12/05 22:26:37;;;;;;;1999.90;999.90;;;2.10;99.90;;;;;;6726148;88;20300;-75
2022/12/05 22:36:37;;;;;;;1999.90;999.90;;;2.00;99.90;;;;;;6724261;88;20311;-74
2022/12/05 22:46:38;;;;;;;1999.90;999.90;;;2.20;99.90;;;;;;6730815;88;20280;-74
2022/12/05 22:56:39;;;;;;;1999.90;999.90;;;2.20;99.90;;;;;;6726043;88;20185;-74
2022/12/05 23:06:40;;;;;;;1999.90;999.90;;;2.20;99.90;;;;;;6728177;88;20619;-75
2022/12/05 23:16:40;;;;;;;1999.90;999.90;;;2.20;99.90;;;;;;6723681;88;20893;-74
2022/12/05 23:26:43;;;;;;;1999.90;999.90;;;2.00;99.90;;;;;;6723915;88;20206;-74
2022/12/05 23:36:44;;;;;;;1999.90;999.90;;;2.30;99.90;;;;;;6722102;88;20217;-74
2022/12/05 23:46:45;;;;;;;1999.90;999.90;;;2.20;99.90;;;;;;6724137;88;20234;-74
2022/12/05 23:56:45;;;;;;;1999.90;999.90;;;2.30;99.90;;;;;;6720681;88;21073;-74
